Terminal Aerodrome Forecast
Issued by NWS

Home | Current Version | Previous Version | Text Only | Print | Product List | Glossary On
Versions: 1 2 3 4 5 6 7 8 9 10 11 12 13 14 15 16 17 18 19 20 21 22 23 24 25 26 27 28 29 30 31 32 33 34 35 36
000
FTUS44 KHGX 200001 AAA
TAFSGR
TAF AMD
KSGR 200001Z 2000/2024 VRB15KT P6SM VCTS SCT060CB BKN250
     FM200100 VRB04KT P6SM FEW100
     FM201100 23004KT P6SM FEW025 SCT035
     FM201600 21004KT P6SM FEW025 SCT035
     FM202000 14007KT P6SM VCTS SCT050CB BKN250=

USA.gov is the U.S. government's official web portal to all federal, state and local government web resources and services.